Time;durP1;ratioP1;P1;durP2;ratioP2;P2;SDS_P1;SDS_P2;PMS_P1;PMS_P2;Temp;Humidity;BMP_temperature;BMP_pressure;BME280_temperature;BME280_humidity;BME280_pressure;Samples;Min_cycle;Max_cycle;Signal;HPM_P1;HPM_P2
2022/07/23 00:00:27;;;;;;;3.47;3.17;;;;;;;25.28;51.21;93595.09;5052431;28;20510;-92
2022/07/23 00:02:52;;;;;;;2.80;2.45;;;;;;;25.29;51.00;93590.28;5069165;28;20032;-91
2022/07/23 00:05:18;;;;;;;3.63;3.13;;;;;;;25.26;51.09;93583.81;5049514;28;20421;-91
2022/07/23 00:07:43;;;;;;;3.17;2.88;;;;;;;25.30;51.04;93589.00;5035423;28;20515;-91
2022/07/23 00:10:09;;;;;;;3.30;3.00;;;;;;;25.27;50.92;93588.06;5017907;28;20731;-91
2022/07/23 00:12:34;;;;;;;3.22;2.60;;;;;;;25.30;51.04;93588.25;5042940;28;20560;-91
2022/07/23 00:15:00;;;;;;;2.88;2.58;;;;;;;25.28;51.04;93595.09;5027897;28;20075;-91
2022/07/23 00:17:25;;;;;;;4.80;2.90;;;;;;;25.30;50.98;93588.25;4995397;28;20101;-91
2022/07/23 00:19:51;;;;;;;3.30;2.92;;;;;;;25.28;50.77;93589.53;5031884;28;20048;-91
2022/07/23 00:22:16;;;;;;;3.47;2.38;;;;;;;25.28;51.34;93575.72;5031376;28;20048;-91
2022/07/23 00:24:42;;;;;;;3.53;2.92;;;;;;;25.28;51.19;93564.63;5010724;28;20037;-90
2022/07/23 00:27:07;;;;;;;3.92;3.05;;;;;;;25.30;51.02;93571.66;5012343;28;20042;-91
2022/07/23 00:29:32;;;;;;;3.78;2.97;;;;;;;25.27;50.95;93568.69;4977741;28;20029;-90
2022/07/23 00:31:58;;;;;;;3.15;2.80;;;;;;;25.26;50.78;93564.44;5011919;28;20096;-91
2022/07/23 00:34:23;;;;;;;2.65;2.45;;;;;;;25.27;50.92;93557.63;5006521;28;20125;-91
2022/07/23 00:36:49;;;;;;;3.40;2.90;;;;;;;25.26;51.11;93552.66;5062706;28;20036;-91
2022/07/23 00:39:14;;;;;;;3.33;3.03;;;;;;;25.25;51.08;93546.38;5075409;28;20031;-91
2022/07/23 00:41:39;;;;;;;2.08;1.88;;;;;;;25.25;51.02;93543.59;5076182;28;20403;-92
2022/07/23 00:44:21;;;;;;;3.58;2.75;;;;;;;25.24;51.30;93541.38;5075927;28;20398;-91
2022/07/23 00:46:53;;;;;;;2.67;2.40;;;;;;;25.25;51.04;93532.53;5076178;28;20160;-91
2022/07/23 00:49:20;;;;;;;3.15;2.72;;;;;;;25.25;50.98;93526.28;5062916;28;20044;-90
2022/07/23 00:51:45;;;;;;;3.00;2.63;;;;;;;25.24;50.78;93522.75;5036129;28;20052;-91
2022/07/23 00:54:11;;;;;;;2.95;2.50;;;;;;;25.26;51.03;93522.22;5034974;28;20036;-91
2022/07/23 00:56:36;;;;;;;3.13;2.50;;;;;;;25.24;50.83;93522.03;5018642;28;20610;-91
2022/07/23 00:59:03;;;;;;;2.67;2.47;;;;;;;25.26;50.88;93519.44;5052808;28;20036;-91
2022/07/23 01:01:28;;;;;;;3.30;3.00;;;;;;;25.23;50.89;93515.00;5071506;28;20096;-91
2022/07/23 01:03:53;;;;;;;3.53;2.55;;;;;;;25.25;50.79;93517.97;5076060;28;20402;-92
2022/07/23 01:06:19;;;;;;;3.40;2.60;;;;;;;25.22;50.82;93502.47;5074323;28;20062;-91
2022/07/23 01:08:44;;;;;;;3.05;2.60;;;;;;;25.23;50.75;93504.69;5058869;28;20036;-90
2022/07/23 01:11:11;;;;;;;3.70;2.90;;;;;;;25.21;50.94;93498.97;5074775;28;20043;-90
2022/07/23 01:13:41;;;;;;;3.28;2.97;;;;;;;25.21;51.00;93501.00;5060674;28;20102;-91
2022/07/23 01:16:06;;;;;;;3.47;2.80;;;;;;;25.21;51.07;93498.22;5039420;28;20487;-91
2022/07/23 01:18:32;;;;;;;3.08;2.75;;;;;;;25.22;51.06;93481.06;5048697;28;20107;-91
2022/07/23 01:20:57;;;;;;;3.00;2.70;;;;;;;25.23;51.13;93485.31;5055710;28;20495;-91
2022/07/23 01:23:23;;;;;;;2.85;2.40;;;;;;;25.22;51.17;93477.56;5037499;28;20519;-93
2022/07/23 01:25:49;;;;;;;3.20;2.50;;;;;;;25.22;51.07;93464.47;5049052;28;20040;-91
2022/07/23 01:28:14;;;;;;;3.10;2.80;;;;;;;25.23;51.23;93451.38;5074680;28;20035;-91
2022/07/23 01:30:40;;;;;;;3.45;2.80;;;;;;;25.20;50.99;93452.47;5074991;28;20074;-91
2022/07/23 01:33:05;;;;;;;2.75;2.45;;;;;;;25.20;51.04;93447.69;5058243;28;20089;-91
2022/07/23 01:35:31;;;;;;;3.08;2.78;;;;;;;25.21;50.88;93435.31;5090323;28;20035;-91
2022/07/23 01:37:56;;;;;;;3.35;3.05;;;;;;;25.21;50.82;93421.50;5079931;28;20170;-92
2022/07/23 01:40:22;;;;;;;2.20;2.00;;;;;;;25.18;51.02;93422.59;5070832;28;20036;-91
2022/07/23 01:42:47;;;;;;;3.20;2.58;;;;;;;25.19;50.91;93423.34;5071290;28;20036;-91
2022/07/23 01:45:13;;;;;;;3.10;2.75;;;;;;;25.19;50.84;93415.78;5088239;28;20032;-91
2022/07/23 01:47:38;;;;;;;2.58;2.00;;;;;;;25.18;51.09;93428.13;5054853;28;20540;-91
2022/07/23 01:50:04;;;;;;;2.90;2.50;;;;;;;25.20;50.94;93439.38;5066987;28;20046;-91
2022/07/23 01:52:29;;;;;;;3.30;2.70;;;;;;;25.19;50.43;93465.56;5074245;28;20028;-91
2022/07/23 01:54:55;;;;;;;3.55;2.72;;;;;;;25.19;50.89;93465.56;5074545;28;20044;-91
2022/07/23 01:57:20;;;;;;;3.40;2.70;;;;;;;25.19;50.96;93468.34;5090956;28;20035;-92
2022/07/23 01:59:46;;;;;;;2.90;2.65;;;;;;;25.19;50.94;93465.56;5057737;28;20031;-91
2022/07/23 02:02:12;;;;;;;3.83;3.20;;;;;;;25.18;51.03;93464.09;5073290;28;20038;-91
2022/07/23 02:04:38;;;;;;;3.30;3.00;;;;;;;25.18;51.07;93469.63;5074347;28;20086;-92
2022/07/23 02:07:04;;;;;;;3.50;3.20;;;;;;;25.18;50.91;93468.91;5074302;28;20486;-91
2022/07/23 02:09:29;;;;;;;3.45;2.55;;;;;;;25.18;50.98;93455.81;5091258;28;20088;-91
2022/07/23 02:11:55;;;;;;;3.30;3.00;;;;;;;25.19;51.18;93448.25;5057469;28;20043;-91
2022/07/23 02:14:20;;;;;;;3.15;2.45;;;;;;;25.18;51.17;93441.97;5059847;28;20040;-91
2022/07/23 02:16:46;;;;;;;3.42;2.70;;;;;;;25.18;50.97;93438.47;5054771;28;20040;-91
2022/07/23 02:19:11;;;;;;;3.25;2.63;;;;;;;25.18;51.22;93441.22;5070245;28;20062;-92
2022/07/23 02:21:37;;;;;;;2.72;2.47;;;;;;;25.18;51.17;93446.75;5053950;28;20040;-91
2022/07/23 02:24:02;;;;;;;3.53;2.80;;;;;;;25.18;50.95;93449.53;5037372;28;20094;-92
2022/07/23 02:26:28;;;;;;;2.88;2.60;;;;;;;25.18;51.15;93441.22;5069489;28;20108;-91
2022/07/23 02:28:53;;;;;;;2.65;2.25;;;;;;;25.17;51.07;93446.03;5037934;28;20047;-90
2022/07/23 02:31:19;;;;;;;2.90;2.58;;;;;;;25.16;50.98;93450.09;5036291;28;20070;-91
2022/07/23 02:33:44;;;;;;;2.90;2.40;;;;;;;25.18;51.02;93447.50;5090790;28;20394;-91
2022/07/23 02:36:10;;;;;;;3.38;2.53;;;;;;;25.17;50.96;93457.09;5090229;28;20051;-90
2022/07/23 02:38:35;;;;;;;2.90;2.08;;;;;;;25.15;50.93;93461.69;5072391;28;20402;-91
2022/07/23 02:41:01;;;;;;;3.13;2.65;;;;;;;25.17;50.83;93459.13;5074502;28;20035;-91
2022/07/23 02:43:26;;;;;;;2.85;2.38;;;;;;;25.16;50.98;93469.44;5056882;28;20068;-91
2022/07/23 02:45:52;;;;;;;2.50;2.30;;;;;;;25.14;50.84;93463.72;5056862;28;20035;-91
2022/07/23 02:48:17;;;;;;;3.42;3.13;;;;;;;25.15;50.84;93464.47;5068631;28;20052;-91
2022/07/23 02:50:43;;;;;;;2.75;2.50;;;;;;;25.13;50.80;93461.50;5038799;28;20466;-91
2022/07/23 02:53:08;;;;;;;2.80;2.22;;;;;;;25.14;50.98;93468.53;5032944;28;20487;-90
2022/07/23 02:55:33;;;;;;;3.10;2.60;;;;;;;25.13;51.05;93461.50;5049885;28;20036;-91
2022/07/23 02:57:59;;;;;;;2.92;2.60;;;;;;;25.14;51.12;93465.75;5016974;28;20047;-91
2022/07/23 03:00:24;;;;;;;2.90;2.40;;;;;;;25.14;50.96;93460.97;5033310;28;20040;-91
2022/07/23 03:02:50;;;;;;;2.85;2.25;;;;;;;25.14;50.88;93469.25;5049708;28;20051;-91
2022/07/23 03:05:15;;;;;;;2.42;2.22;;;;;;;25.15;50.86;93464.47;5016282;28;20569;-90
2022/07/23 03:07:41;;;;;;;2.65;2.25;;;;;;;25.14;51.06;93463.72;5017250;28;20051;-91
2022/07/23 03:10:06;;;;;;;2.70;2.50;;;;;;;25.13;50.93;93480.88;5021441;28;20660;-90
2022/07/23 03:12:32;;;;;;;3.33;2.50;;;;;;;25.14;51.10;93488.63;5069927;28;20028;-91
2022/07/23 03:14:57;;;;;;;3.03;2.33;;;;;;;25.13;51.10;93486.41;5069436;28;20093;-91
2022/07/23 03:17:22;;;;;;;2.22;2.03;;;;;;;25.13;51.01;93495.44;5035624;28;20036;-91
2022/07/23 03:19:48;;;;;;;3.17;2.50;;;;;;;25.12;50.87;93491.22;5017259;28;20044;-90
2022/07/23 03:22:13;;;;;;;3.53;2.47;;;;;;;25.11;50.74;93484.22;5016954;28;20036;-91
2022/07/23 03:24:54;;;;;;;3.30;2.70;;;;;;;25.11;51.25;93511.16;5050286;28;20434;-91
2022/07/23 03:27:21;;;;;;;2.55;2.35;;;;;;;25.12;51.00;93512.59;5032306;28;20132;-92
2022/07/23 03:29:46;;;;;;;3.97;2.30;;;;;;;25.13;51.15;93509.28;5053991;28;20032;-91
2022/07/23 03:32:11;;;;;;;3.58;2.70;;;;;;;25.13;50.92;93508.53;5044459;28;20056;-92
2022/07/23 03:34:37;;;;;;;3.22;2.58;;;;;;;25.11;51.14;93511.88;5047075;28;20040;-92
2022/07/23 03:37:02;;;;;;;2.53;2.20;;;;;;;25.11;50.82;93520.19;5050209;28;20037;-92
2022/07/23 03:39:28;;;;;;;2.92;2.38;;;;;;;25.11;50.94;93524.97;5017546;28;20066;-91
2022/07/23 03:41:53;;;;;;;3.08;2.60;;;;;;;25.12;51.10;93526.44;5036649;28;20036;-92
2022/07/23 03:44:19;;;;;;;3.05;2.42;;;;;;;25.11;51.00;93528.47;5020147;28;20028;-91
2022/07/23 03:46:44;;;;;;;3.30;2.08;;;;;;;25.12;51.19;93543.03;5020642;28;20044;-91
2022/07/23 03:49:09;;;;;;;2.50;2.30;;;;;;;25.11;50.81;93556.16;5032459;28;20047;-91
2022/07/23 03:51:35;;;;;;;2.67;2.38;;;;;;;25.11;50.98;93563.72;5067512;28;20090;-91
2022/07/23 03:54:00;;;;;;;2.60;2.40;;;;;;;25.09;51.03;93569.78;5037071;28;20110;-91
2022/07/23 03:56:26;;;;;;;2.60;2.28;;;;;;;25.09;50.90;93563.53;5018975;28;20037;-91
2022/07/23 03:58:51;;;;;;;2.28;1.90;;;;;;;25.11;50.94;93583.81;5053121;28;20036;-91
2022/07/23 04:01:17;;;;;;;2.17;1.98;;;;;;;25.10;50.96;93582.34;5036644;28;20751;-91
2022/07/23 04:03:42;;;;;;;3.00;2.08;;;;;;;25.09;50.90;93572.56;5074428;28;20097;-91
2022/07/23 04:06:08;;;;;;;2.85;2.40;;;;;;;25.10;50.95;93570.53;5060399;28;20092;-91
2022/07/23 04:08:33;;;;;;;2.55;2.20;;;;;;;25.08;51.08;93568.31;5076530;28;20032;-90
2022/07/23 04:10:58;;;;;;;2.33;2.05;;;;;;;25.09;50.75;93563.53;5093429;28;20088;-91
2022/07/23 04:13:24;;;;;;;3.08;2.47;;;;;;;25.10;50.78;93565.00;5059028;28;20051;-90
2022/07/23 04:15:50;;;;;;;2.67;2.38;;;;;;;25.08;50.86;93556.50;5036956;28;20094;-91
2022/07/23 04:18:17;;;;;;;2.75;2.33;;;;;;;25.09;50.94;93552.47;5039793;28;20116;-90
2022/07/23 04:20:43;;;;;;;2.35;2.10;;;;;;;25.09;50.94;93563.53;5053325;28;20037;-91
2022/07/23 04:23:09;;;;;;;3.33;2.28;;;;;;;25.09;51.02;93571.81;5036633;28;20036;-91
2022/07/23 04:25:35;;;;;;;2.22;1.92;;;;;;;25.09;50.96;93567.03;5035516;28;20048;-92
2022/07/23 04:28:00;;;;;;;2.70;2.10;;;;;;;25.08;50.98;93551.72;5038865;28;20032;-91
2022/07/23 04:30:25;;;;;;;4.10;2.63;;;;;;;25.10;50.93;93562.22;5038885;28;20044;-91
2022/07/23 04:32:51;;;;;;;3.15;2.38;;;;;;;25.10;50.99;93557.44;5048348;28;20040;-91
2022/07/23 04:35:16;;;;;;;3.03;2.47;;;;;;;25.10;51.20;93546.38;5091383;28;20044;-90
2022/07/23 04:37:42;;;;;;;3.13;2.65;;;;;;;25.10;50.85;93549.13;5066837;28;20044;-91
2022/07/23 04:40:08;;;;;;;2.35;2.13;;;;;;;25.10;50.92;93549.13;5056225;28;20039;-92
2022/07/23 04:42:33;;;;;;;4.07;2.78;;;;;;;25.10;50.84;93529.78;5055776;28;20042;-91
2022/07/23 04:44:58;;;;;;;3.03;2.35;;;;;;;25.11;50.82;93539.56;5039113;28;20081;-91
2022/07/23 04:47:24;;;;;;;2.72;2.38;;;;;;;25.10;50.90;93537.34;5054200;28;20381;-91
2022/07/23 04:49:49;;;;;;;2.63;2.30;;;;;;;25.08;50.96;93548.22;5054872;28;20055;-90
2022/07/23 04:52:15;;;;;;;2.83;2.30;;;;;;;25.10;50.78;93540.09;5037805;28;20037;-90
2022/07/23 04:54:40;;;;;;;2.60;2.40;;;;;;;25.08;50.80;93537.88;5039310;28;20028;-90
2022/07/23 04:57:06;;;;;;;2.65;2.40;;;;;;;25.09;51.02;93531.06;5055472;28;20040;-91
2022/07/23 04:59:31;;;;;;;2.83;2.38;;;;;;;25.10;50.88;93537.34;5054202;28;20032;-91
2022/07/23 05:01:56;;;;;;;2.33;1.92;;;;;;;25.11;50.77;93533.28;5055687;28;20047;-91
2022/07/23 05:04:22;;;;;;;3.08;2.10;;;;;;;25.11;50.77;93552.66;5038518;28;20072;-91
2022/07/23 05:06:47;;;;;;;2.45;2.22;;;;;;;25.10;51.07;93549.13;5039098;28;20047;-91
2022/07/23 05:09:13;;;;;;;2.75;2.28;;;;;;;25.10;50.96;93546.38;5037643;28;20032;-91
2022/07/23 05:11:38;;;;;;;2.47;2.20;;;;;;;25.13;50.76;93555.56;5038988;28;20055;-91
2022/07/23 05:14:03;;;;;;;2.80;2.38;;;;;;;25.12;50.46;93565.16;5071282;28;20036;-91
2022/07/23 05:16:29;;;;;;;2.55;2.28;;;;;;;25.13;50.63;93561.09;5070675;28;20036;-91
2022/07/23 05:18:54;;;;;;;2.53;2.33;;;;;;;25.10;50.70;93556.69;5055135;28;20040;-91
2022/07/23 05:21:20;;;;;;;2.63;2.22;;;;;;;25.10;50.70;93562.22;5038031;28;20036;-91
2022/07/23 05:23:45;;;;;;;2.50;2.30;;;;;;;25.11;50.75;93569.97;5072101;28;20047;-91
2022/07/23 05:26:11;;;;;;;2.55;1.95;;;;;;;25.12;50.98;93565.91;5071939;28;20376;-91
2022/07/23 05:28:36;;;;;;;2.65;2.38;;;;;;;25.12;50.64;93574.19;5071048;28;20119;-91
2022/07/23 05:31:03;;;;;;;3.47;2.58;;;;;;;25.13;50.71;93569.41;5054582;28;20085;-91
2022/07/23 05:33:30;;;;;;;2.95;2.55;;;;;;;25.12;50.69;93563.13;5042330;28;20037;-92
2022/07/23 05:36:02;;;;;;;2.60;2.40;;;;;;;25.12;50.74;93565.16;5052081;28;20104;-90
2022/07/23 05:38:28;;;;;;;2.63;1.98;;;;;;;25.12;50.83;93559.63;5068831;28;20587;-91
2022/07/23 05:40:53;;;;;;;2.78;2.45;;;;;;;25.12;50.51;93565.91;5091725;28;20069;-91
2022/07/23 05:43:18;;;;;;;2.70;2.05;;;;;;;25.14;50.58;93563.31;5109172;28;20035;-90
2022/07/23 05:45:44;;;;;;;2.38;2.17;;;;;;;25.14;50.55;93559.81;5075286;28;20406;-91
2022/07/23 05:48:09;;;;;;;2.72;2.38;;;;;;;25.11;50.83;93553.38;5086678;28;20376;-90
2022/07/23 05:50:35;;;;;;;2.60;2.15;;;;;;;25.11;50.71;93550.63;5070153;28;20410;-92
2022/07/23 05:53:00;;;;;;;3.00;2.47;;;;;;;25.11;50.64;93538.81;5037950;28;20498;-92
2022/07/23 05:55:28;;;;;;;2.75;2.30;;;;;;;25.11;50.53;93541.59;5053255;28;20044;-91
2022/07/23 05:57:55;;;;;;;2.60;2.40;;;;;;;25.11;50.60;93544.34;5055404;28;20039;-91
2022/07/23 06:00:20;;;;;;;3.20;2.40;;;;;;;25.11;50.51;93549.88;5035605;28;20035;-91
2022/07/23 06:02:45;;;;;;;2.85;2.25;;;;;;;25.12;50.58;93540.25;5049817;28;20526;-91
2022/07/23 06:05:11;;;;;;;2.92;2.22;;;;;;;25.13;50.51;93538.97;5050934;28;20511;-92
2022/07/23 06:07:36;;;;;;;2.58;2.30;;;;;;;25.13;50.59;93536.94;5018150;28;20526;-91
2022/07/23 06:10:02;;;;;;;3.25;2.63;;;;;;;25.13;50.57;93544.50;5034105;28;20487;-91
2022/07/23 06:12:28;;;;;;;2.90;2.60;;;;;;;25.12;50.38;93545.78;5050841;28;20033;-92
2022/07/23 06:14:53;;;;;;;2.80;2.45;;;;;;;25.12;50.52;93549.31;5033522;28;20089;-91
2022/07/23 06:17:18;;;;;;;2.30;2.10;;;;;;;25.13;50.71;93555.56;5066773;28;20048;-91
2022/07/23 06:19:44;;;;;;;2.67;2.35;;;;;;;25.13;50.46;93555.56;5037619;28;20081;-90
2022/07/23 06:22:09;;;;;;;2.60;2.25;;;;;;;25.12;50.63;93565.91;5038165;28;20047;-91
2022/07/23 06:24:35;;;;;;;2.15;1.90;;;;;;;25.12;50.46;93571.44;5053917;28;20287;-91
2022/07/23 06:27:00;;;;;;;2.63;2.10;;;;;;;25.12;50.81;93565.91;5053796;28;20107;-91
2022/07/23 06:29:25;;;;;;;2.40;2.15;;;;;;;25.13;50.50;93566.63;5053244;28;20032;-91
2022/07/23 06:31:51;;;;;;;2.22;2.00;;;;;;;25.13;50.42;93569.41;5054055;28;20039;-91
2022/07/23 06:34:16;;;;;;;3.50;2.47;;;;;;;25.13;50.61;93548.00;5053091;28;20032;-90
2022/07/23 06:36:42;;;;;;;2.25;1.90;;;;;;;25.12;50.39;93554.84;5054059;28;20556;-92
2022/07/23 06:39:07;;;;;;;2.47;2.20;;;;;;;25.12;50.62;93552.06;5069949;28;20032;-91
2022/07/23 06:41:33;;;;;;;2.28;2.03;;;;;;;25.13;50.55;93552.81;5036422;28;20032;-92
2022/07/23 06:43:58;;;;;;;2.88;2.20;;;;;;;25.11;50.39;93553.38;5070862;28;20036;-91
2022/07/23 06:46:25;;;;;;;2.72;2.03;;;;;;;25.12;50.68;93556.84;5053201;28;20068;-91
2022/07/23 06:48:50;;;;;;;2.90;2.15;;;;;;;25.12;50.55;93552.06;5052839;28;20040;-91
2022/07/23 06:51:15;;;;;;;4.03;2.10;;;;;;;25.12;50.32;93552.06;5043326;28;20549;-91
2022/07/23 06:53:41;;;;;;;2.35;1.98;;;;;;;25.13;50.68;93556.31;5090108;28;20039;-91
2022/07/23 06:56:06;;;;;;;2.40;2.10;;;;;;;25.12;50.44;93551.31;5056843;28;20032;-91
2022/07/23 06:58:32;;;;;;;3.15;2.03;;;;;;;25.14;50.36;93555.03;5027815;28;20107;-91
2022/07/23 07:00:57;;;;;;;2.30;1.90;;;;;;;25.14;50.49;93551.53;5011852;28;20044;-91
2022/07/23 07:03:23;;;;;;;2.88;2.10;;;;;;;25.13;50.47;93550.78;5027481;28;20045;-92
2022/07/23 07:05:49;;;;;;;2.60;1.88;;;;;;;25.11;50.49;93544.34;4996624;28;20065;-91
2022/07/23 07:08:15;;;;;;;2.42;2.05;;;;;;;25.10;50.56;93557.44;5013132;28;20037;-91
2022/07/23 07:10:40;;;;;;;2.97;1.95;;;;;;;25.11;50.65;93550.63;4995595;28;20504;-93
2022/07/23 07:13:06;;;;;;;2.92;1.90;;;;;;;25.13;50.49;93547.28;5028743;28;20030;-91
2022/07/23 07:15:31;;;;;;;2.67;2.03;;;;;;;25.11;50.37;93549.88;5031043;28;20037;-90
2022/07/23 07:17:56;;;;;;;2.13;1.77;;;;;;;25.12;50.50;93548.56;5008867;28;20092;-91
2022/07/23 07:20:23;;;;;;;2.50;2.10;;;;;;;25.12;50.27;93554.09;4993111;28;20034;-91
2022/07/23 07:22:49;;;;;;;2.42;1.83;;;;;;;25.13;50.54;93561.84;4977793;28;20048;-91
2022/07/23 07:25:14;;;;;;;2.15;1.73;;;;;;;25.13;50.43;93567.38;4991887;28;20038;-91
2022/07/23 07:27:39;;;;;;;2.35;1.85;;;;;;;25.11;50.47;93564.44;5009233;28;20037;-91
2022/07/23 07:30:05;;;;;;;2.20;1.80;;;;;;;25.11;50.44;93580.31;5065144;28;20032;-90
2022/07/23 07:32:32;;;;;;;2.50;1.80;;;;;;;25.12;50.39;93576.22;5076771;28;20039;-91
2022/07/23 07:34:58;;;;;;;3.40;1.95;;;;;;;25.12;50.28;93573.47;5060879;28;20122;-92
2022/07/23 07:37:23;;;;;;;2.17;1.77;;;;;;;25.12;50.63;93573.47;5076676;28;20027;-91
2022/07/23 07:39:48;;;;;;;2.90;2.17;;;;;;;25.10;50.72;93576.81;5064716;28;20412;-91
2022/07/23 07:42:14;;;;;;;2.97;2.45;;;;;;;25.10;50.61;93584.38;5036865;28;20399;-90
2022/07/23 07:44:39;;;;;;;3.22;2.88;;;;;;;25.11;50.47;93583.06;5036733;28;20203;-91
2022/07/23 07:47:05;;;;;;;3.08;2.78;;;;;;;25.09;50.55;93582.88;5037262;28;20522;-91
2022/07/23 07:49:30;;;;;;;3.22;2.58;;;;;;;25.09;50.54;93582.88;5018167;28;20052;-91
2022/07/23 07:51:55;;;;;;;3.28;2.60;;;;;;;25.08;50.79;93584.91;5044248;28;20410;-91
2022/07/23 07:54:21;;;;;;;3.10;2.33;;;;;;;25.11;50.65;93588.59;5055495;28;20028;-91
2022/07/23 07:56:47;;;;;;;2.55;2.25;;;;;;;25.11;50.59;93599.69;5073391;28;20114;-91
2022/07/23 07:59:14;;;;;;;4.05;3.08;;;;;;;25.12;50.57;93609.41;5056780;28;20085;-91
2022/07/23 08:01:40;;;;;;;3.63;3.13;;;;;;;25.11;50.66;93605.94;5038914;28;20036;-91
2022/07/23 08:04:05;;;;;;;3.17;2.63;;;;;;;25.12;50.63;93595.59;5066357;28;20043;-92
2022/07/23 08:06:30;;;;;;;2.28;2.00;;;;;;;25.12;50.43;93606.66;5076224;28;20402;-91
2022/07/23 08:08:56;;;;;;;3.53;3.00;;;;;;;25.11;50.66;93617.00;5094072;28;20405;-91
2022/07/23 08:11:21;;;;;;;4.15;3.53;;;;;;;25.12;50.55;93615.69;5092114;28;20481;-92
2022/07/23 08:13:47;;;;;;;4.07;2.83;;;;;;;25.12;50.62;93614.94;5075127;28;20046;-91
2022/07/23 08:16:12;;;;;;;3.42;2.80;;;;;;;25.13;50.50;93611.63;5068604;28;20044;-91
2022/07/23 08:18:38;;;;;;;3.40;2.72;;;;;;;25.13;50.38;93611.63;5026696;28;20056;-91
2022/07/23 08:21:05;;;;;;;4.07;2.92;;;;;;;25.14;50.52;93618.66;5068442;28;20033;-93
2022/07/23 08:23:31;;;;;;;3.30;3.00;;;;;;;25.16;50.53;93632.69;5034738;28;20036;-91
2022/07/23 08:25:56;;;;;;;3.53;3.22;;;;;;;25.16;50.53;93627.13;5035143;28;20037;-91
2022/07/23 08:28:22;;;;;;;4.13;3.10;;;;;;;25.15;50.56;93622.16;5049202;28;20028;-91
2022/07/23 08:30:47;;;;;;;5.07;3.65;;;;;;;25.16;50.61;93615.34;5075541;28;20120;-91
2022/07/23 08:33:14;;;;;;;3.33;2.60;;;;;;;25.17;50.25;93628.63;5072483;28;20047;-91
2022/07/23 08:35:42;;;;;;;5.25;3.05;;;;;;;25.17;50.41;93609.25;5055151;28;20036;-91
2022/07/23 08:38:09;;;;;;;2.85;2.15;;;;;;;25.14;50.60;93607.59;5052178;28;20047;-91
2022/07/23 08:40:36;;;;;;;3.28;2.25;;;;;;;25.16;50.39;93609.81;5079313;28;20040;-91
2022/07/23 08:43:05;;;;;;;2.40;2.20;;;;;;;25.17;50.23;93609.25;5054987;28;20101;-92
2022/07/23 08:45:30;;;;;;;3.55;2.50;;;;;;;25.16;50.50;93615.34;5037839;28;20067;-91
2022/07/23 08:47:58;;;;;;;4.68;2.58;;;;;;;25.17;50.79;93619.59;5055139;28;20036;-91
2022/07/23 08:50:24;;;;;;;2.33;2.00;;;;;;;25.17;50.35;93628.63;5055331;28;20040;-91
2022/07/23 08:52:50;;;;;;;2.75;2.35;;;;;;;25.16;50.57;93631.94;5068150;28;20122;-92
2022/07/23 08:55:19;;;;;;;3.17;2.17;;;;;;;25.15;50.23;93631.19;5074125;28;20059;-91
2022/07/23 08:57:46;;;;;;;2.28;1.90;;;;;;;25.17;50.42;93641.72;5075863;28;20036;-91
2022/07/23 09:00:12;;;;;;;2.80;2.10;;;;;;;25.17;50.40;93639.69;5058694;28;20035;-90
2022/07/23 09:02:42;;;;;;;2.28;1.83;;;;;;;25.17;50.26;93641.72;5058470;28;20169;-91
2022/07/23 09:05:08;;;;;;;2.47;2.10;;;;;;;25.19;50.45;93645.41;5040403;28;20425;-91
2022/07/23 09:07:33;;;;;;;2.67;2.45;;;;;;;25.18;50.60;93651.50;5017841;28;20110;-91
2022/07/23 09:10:07;;;;;;;4.20;2.75;;;;;;;25.18;50.31;93657.03;5035807;28;20434;-91
2022/07/23 09:12:32;;;;;;;3.08;2.33;;;;;;;25.18;50.27;93655.00;5018452;28;20032;-91
2022/07/23 09:14:57;;;;;;;2.40;2.10;;;;;;;25.19;50.31;93655.75;5018833;28;20491;-91
2022/07/23 09:17:23;;;;;;;2.63;2.30;;;;;;;25.18;50.43;93657.03;5050078;28;20047;-91
2022/07/23 09:19:48;;;;;;;3.85;2.13;;;;;;;25.19;50.45;93664.78;5055447;28;20059;-91
2022/07/23 09:22:21;;;;;;;3.05;2.45;;;;;;;25.19;50.16;93652.97;5054303;28;20040;-90
2022/07/23 09:25:08;;;;;;;2.13;1.85;;;;;;;25.18;50.31;93655.00;5055379;28;20366;-92
2022/07/23 09:27:53;;;;;;;2.88;2.10;;;;;;;25.18;50.40;93641.16;5054704;28;20458;-92
2022/07/23 09:30:20;;;;;;;5.10;2.28;;;;;;;25.22;49.85;93638.03;5071329;28;20069;-91
2022/07/23 09:33:06;;;;;;;3.33;2.58;;;;;;;25.19;50.30;93645.41;5040119;28;20032;-90
2022/07/23 09:35:51;;;;;;;2.25;1.80;;;;;;;25.18;50.61;93641.16;5075044;28;20052;-92
2022/07/23 09:38:17;;;;;;;3.38;2.33;;;;;;;25.22;50.15;93644.31;5057853;28;20118;-92
2022/07/23 09:40:43;;;;;;;2.40;2.20;;;;;;;25.23;50.05;93653.34;5081266;28;20051;-91
2022/07/23 09:43:08;;;;;;;2.03;1.80;;;;;;;25.24;50.13;93663.13;5037018;28;20032;-90
2022/07/23 09:45:34;;;;;;;2.88;2.08;;;;;;;25.25;50.14;93650.78;5054498;28;20419;-91
2022/07/23 09:48:16;;;;;;;3.10;2.45;;;;;;;25.21;50.16;93656.66;5071507;28;20032;-91
2022/07/23 09:50:42;;;;;;;2.40;2.10;;;;;;;25.26;50.13;93649.50;5037268;28;20036;-91
2022/07/23 09:53:07;;;;;;;2.42;2.10;;;;;;;25.27;50.08;93659.28;5071212;28;20372;-92
2022/07/23 09:55:36;;;;;;;2.22;1.70;;;;;;;25.27;50.17;93653.75;5053395;28;20063;-90
2022/07/23 09:58:01;;;;;;;2.10;1.75;;;;;;;25.26;50.33;93643.97;5038352;28;20025;-91
2022/07/23 10:00:27;;;;;;;2.92;1.95;;;;;;;25.27;50.05;93637.88;5069649;28;20211;-91
2022/07/23 10:02:52;;;;;;;2.08;1.80;;;;;;;25.28;50.20;93641.38;5037639;28;20113;-91
2022/07/23 10:05:18;;;;;;;2.13;1.80;;;;;;;25.28;50.20;93641.38;5070229;28;20044;-93
2022/07/23 10:07:44;;;;;;;3.10;1.92;;;;;;;25.29;50.06;93640.09;5036948;28;20107;-91
2022/07/23 10:10:10;;;;;;;2.55;2.00;;;;;;;25.30;50.18;93643.59;5050424;28;20465;-90
2022/07/23 10:13:00;;;;;;;2.35;2.13;;;;;;;25.31;49.88;93636.78;5033064;28;20510;-91
2022/07/23 10:15:25;;;;;;;2.10;1.80;;;;;;;25.31;50.16;93637.53;5024527;28;20240;-91
2022/07/23 10:17:51;;;;;;;2.00;1.55;;;;;;;25.33;49.99;93645.28;5043433;28;20040;-92
2022/07/23 10:20:16;;;;;;;2.03;1.80;;;;;;;25.32;49.94;93632.72;5034105;28;20044;-92
2022/07/23 10:22:50;;;;;;;2.35;2.00;;;;;;;25.32;50.02;93638.25;5050214;28;20044;-92
2022/07/23 10:25:30;;;;;;;3.10;1.70;;;;;;;25.30;49.90;93636.03;5032728;28;20055;-90
2022/07/23 10:28:17;;;;;;;2.10;1.55;;;;;;;25.32;49.91;93632.72;5051174;28;20518;-90
2022/07/23 10:31:00;;;;;;;2.65;2.03;;;;;;;25.30;50.06;93630.50;5087550;28;20101;-91
2022/07/23 10:33:43;;;;;;;2.38;1.67;;;;;;;25.34;50.00;93627.34;5052598;28;20043;-91
2022/07/23 10:36:19;;;;;;;2.10;1.83;;;;;;;25.34;50.00;93630.13;5070147;28;20040;-91
2022/07/23 10:38:52;;;;;;;1.95;1.70;;;;;;;25.34;49.88;93621.81;5050392;28;20045;-91
2022/07/23 10:41:30;;;;;;;1.95;1.73;;;;;;;25.34;49.85;93619.03;5043798;28;20043;-91
2022/07/23 10:44:16;;;;;;;2.30;1.58;;;;;;;25.32;49.78;93611.31;5070274;28;20044;-91
2022/07/23 10:49:33;;;;;;;1.75;1.65;;;;;;;25.34;49.80;93619.78;5089716;28;20044;-91
2022/07/23 10:52:13;;;;;;;2.53;2.00;;;;;;;25.33;50.03;93612.81;5057334;28;20032;-91
2022/07/23 10:54:50;;;;;;;1.85;1.60;;;;;;;25.35;49.80;93615.00;5066388;28;20055;-91
2022/07/23 10:57:17;;;;;;;2.00;1.80;;;;;;;25.37;49.90;93617.94;5018255;28;20033;-90
2022/07/23 11:00:01;;;;;;;1.88;1.60;;;;;;;25.35;50.02;93626.81;5016823;28;20032;-91
2022/07/23 11:02:28;;;;;;;1.85;1.42;;;;;;;25.37;49.73;93612.41;5047076;28;20403;-91
2022/07/23 11:04:53;;;;;;;1.75;1.50;;;;;;;25.38;49.76;93611.88;5039863;28;20484;-91
2022/07/23 11:07:22;;;;;;;2.45;1.60;;;;;;;25.38;49.70;93614.63;5049479;28;20039;-91
2022/07/23 11:09:47;;;;;;;2.00;1.77;;;;;;;25.39;49.88;93610.56;5051779;28;20078;-92
2022/07/23 11:12:13;;;;;;;2.05;1.80;;;;;;;25.40;49.97;93608.53;5052460;28;20120;-91
2022/07/23 11:14:57;;;;;;;1.98;1.73;;;;;;;25.37;49.84;93612.41;5069305;28;20044;-90
2022/07/23 11:17:22;;;;;;;1.80;1.70;;;;;;;25.40;49.67;93617.59;5069472;28;20040;-91
2022/07/23 11:20:12;;;;;;;2.70;1.88;;;;;;;25.38;49.87;93603.56;5053438;28;20044;-91
2022/07/23 11:22:43;;;;;;;2.17;1.70;;;;;;;25.39;49.86;93605.03;5075302;28;20119;-91
2022/07/23 11:25:10;;;;;;;2.47;1.73;;;;;;;25.40;49.63;93598.22;5086410;28;20085;-90
2022/07/23 11:27:38;;;;;;;2.03;1.67;;;;;;;25.41;49.70;93604.50;5036131;28;20098;-91
2022/07/23 11:30:03;;;;;;;2.00;1.75;;;;;;;25.43;49.73;93601.91;5053326;28;20415;-90
2022/07/23 11:32:32;;;;;;;2.75;1.67;;;;;;;25.42;49.79;93597.66;5052122;28;20036;-91
2022/07/23 11:34:58;;;;;;;3.47;2.08;;;;;;;25.44;49.55;93593.06;5048835;28;20074;-90